Time;durP1;ratioP1;P1;durP2;ratioP2;P2;SDS_P1;SDS_P2;PMS_P1;PMS_P2;Temp;Humidity;BMP_temperature;BMP_pressure;BME280_temperature;BME280_humidity;BME280_pressure;Samples;Min_cycle;Max_cycle;Signal;HPM_P1;HPM_P2
2023/11/18 00:02:08;;;;;;;11.10;5.60;;;;;;;;;;4989317;28;20038;-73
2023/11/18 00:04:34;;;;;;;10.68;5.75;;;;;;;;;;5006592;28;20072;-72
2023/11/18 00:07:00;;;;;;;11.85;5.45;;;;;;;;;;5010996;28;20392;-73
2023/11/18 00:09:25;;;;;;;14.07;6.93;;;;;;;;;;4996570;28;20065;-73
2023/11/18 00:11:51;;;;;;;12.05;6.07;;;;;;;;;;5004079;28;20483;-72
2023/11/18 00:14:17;;;;;;;9.02;4.43;;;;;;;;;;5006297;28;20072;-73
2023/11/18 00:16:43;;;;;;;11.18;6.03;;;;;;;;;;5010931;28;20038;-74
2023/11/18 00:19:09;;;;;;;11.27;6.05;;;;;;;;;;5005137;28;20756;-72
2023/11/18 00:21:36;;;;;;;14.25;6.40;;;;;;;;;;5006577;28;20143;-72
2023/11/18 00:24:01;;;;;;;15.18;6.53;;;;;;;;;;4999172;28;20068;-72
2023/11/18 00:26:27;;;;;;;6.75;3.60;;;;;;;;;;5006437;28;20041;-72
2023/11/18 00:28:52;;;;;;;10.95;6.22;;;;;;;;;;4997136;28;20858;-73
2023/11/18 00:31:18;;;;;;;12.65;6.07;;;;;;;;;;5016368;28;20041;-73
2023/11/18 00:33:43;;;;;;;12.90;6.25;;;;;;;;;;5004092;28;20041;-73
2023/11/18 00:36:09;;;;;;;7.63;4.35;;;;;;;;;;5004772;28;20109;-74
2023/11/18 00:38:34;;;;;;;7.78;4.60;;;;;;;;;;4998659;28;20045;-74
2023/11/18 00:41:00;;;;;;;5.50;3.28;;;;;;;;;;5003250;28;20033;-73
2023/11/18 00:43:25;;;;;;;7.53;4.13;;;;;;;;;;5010759;28;20042;-74
2023/11/18 00:45:51;;;;;;;9.55;5.38;;;;;;;;;;5004596;28;20034;-72
2023/11/18 00:48:17;;;;;;;5.40;2.92;;;;;;;;;;5006155;28;20140;-74
2023/11/18 00:50:42;;;;;;;5.97;2.63;;;;;;;;;;5009418;28;20049;-73
2023/11/18 00:53:08;;;;;;;10.65;5.97;;;;;;;;;;5002267;28;20172;-72
2023/11/18 00:55:33;;;;;;;11.48;7.00;;;;;;;;;;5008730;28;20099;-73
2023/11/18 00:57:58;;;;;;;11.00;5.57;;;;;;;;;;5003349;28;20038;-73
2023/11/18 01:00:26;;;;;;;9.35;4.90;;;;;;;;;;5016008;28;20098;-74
2023/11/18 01:02:54;;;;;;;13.75;6.55;;;;;;;;;;5013711;28;20045;-74
2023/11/18 01:05:20;;;;;;;12.30;6.47;;;;;;;;;;5019371;28;20061;-72
2023/11/18 01:07:45;;;;;;;12.27;6.18;;;;;;;;;;5007494;28;20083;-76
2023/11/18 01:10:11;;;;;;;15.32;7.70;;;;;;;;;;5004189;28;20081;-74
2023/11/18 01:12:37;;;;;;;12.73;6.25;;;;;;;;;;5009394;28;20044;-74
2023/11/18 01:15:03;;;;;;;8.13;4.10;;;;;;;;;;5003771;28;20034;-74
2023/11/18 01:17:31;;;;;;;16.80;7.45;;;;;;;;;;5011942;28;20041;-74
2023/11/18 01:19:56;;;;;;;11.95;6.47;;;;;;;;;;5000230;28;20030;-74
2023/11/18 01:22:22;;;;;;;6.85;3.17;;;;;;;;;;5014893;28;20044;-75
2023/11/18 01:24:47;;;;;;;16.15;8.77;;;;;;;;;;5011671;28;20065;-74
2023/11/18 01:27:13;;;;;;;17.08;8.13;;;;;;;;;;5004703;28;20744;-77
2023/11/18 01:29:39;;;;;;;18.90;8.60;;;;;;;;;;4992803;28;20466;-75
2023/11/18 01:32:09;;;;;;;16.08;8.45;;;;;;;;;;5003236;28;20417;-76
2023/11/18 01:34:36;;;;;;;16.38;7.65;;;;;;;;;;4994096;28;20037;-74
2023/11/18 01:37:01;;;;;;;16.33;7.63;;;;;;;;;;5010121;28;20412;-74
2023/11/18 01:39:27;;;;;;;16.55;8.35;;;;;;;;;;4989325;28;20040;-73
2023/11/18 01:41:53;;;;;;;17.45;8.32;;;;;;;;;;5012005;28;20129;-75
2023/11/18 01:44:19;;;;;;;12.05;6.40;;;;;;;;;;4988855;28;20484;-74
2023/11/18 01:46:45;;;;;;;16.10;7.63;;;;;;;;;;5007791;28;20034;-74
2023/11/18 01:49:13;;;;;;;14.40;7.88;;;;;;;;;;4996734;28;20381;-74
2023/11/18 01:51:41;;;;;;;17.40;9.20;;;;;;;;;;5004822;28;20037;-76
2023/11/18 01:54:09;;;;;;;18.17;9.05;;;;;;;;;;5005504;28;20103;-74
2023/11/18 01:56:34;;;;;;;18.15;8.80;;;;;;;;;;5010861;28;20061;-73
2023/11/18 01:59:03;;;;;;;21.55;9.40;;;;;;;;;;5003163;28;20054;-74
2023/11/18 02:01:29;;;;;;;17.58;8.07;;;;;;;;;;4999659;28;20096;-74
2023/11/18 02:03:54;;;;;;;18.73;9.23;;;;;;;;;;4989448;28;20045;-75
2023/11/18 02:06:21;;;;;;;19.25;8.10;;;;;;;;;;5004686;28;20559;-73
2023/11/18 02:08:47;;;;;;;12.38;5.57;;;;;;;;;;5003610;28;20052;-74
2023/11/18 02:11:32;;;;;;;20.88;8.02;;;;;;;;;;5009017;28;20057;-73
2023/11/18 02:14:02;;;;;;;20.02;8.73;;;;;;;;;;4992060;28;20034;-74
2023/11/18 02:16:28;;;;;;;18.25;8.27;;;;;;;;;;5002916;28;20125;-73
2023/11/18 02:18:54;;;;;;;15.88;8.05;;;;;;;;;;5004832;28;20113;-73
2023/11/18 02:21:23;;;;;;;21.27;8.65;;;;;;;;;;5011644;28;20109;-74
2023/11/18 02:23:49;;;;;;;13.75;6.47;;;;;;;;;;5010148;28;20038;-77
2023/11/18 02:26:23;;;;;;;16.65;7.20;;;;;;;;;;5004879;28;20623;-74
2023/11/18 02:28:49;;;;;;;14.68;7.90;;;;;;;;;;4997626;28;20621;-74
2023/11/18 02:31:27;;;;;;;17.58;7.80;;;;;;;;;;5012967;28;20125;-75
2023/11/18 02:34:06;;;;;;;9.02;4.90;;;;;;;;;;5002006;28;20677;-75
2023/11/18 02:36:37;;;;;;;18.90;8.23;;;;;;;;;;5003986;28;20042;-75
2023/11/18 02:39:10;;;;;;;21.98;8.32;;;;;;;;;;4992083;28;20583;-73
2023/11/18 02:41:38;;;;;;;16.63;6.90;;;;;;;;;;5002639;28;20057;-75
2023/11/18 02:44:09;;;;;;;17.20;7.82;;;;;;;;;;4992756;28;20030;-75
2023/11/18 02:46:36;;;;;;;15.50;7.15;;;;;;;;;;5001277;28;20042;-75
2023/11/18 02:49:02;;;;;;;6.70;4.03;;;;;;;;;;5001241;28;20069;-75
2023/11/18 02:51:29;;;;;;;20.70;8.57;;;;;;;;;;4993722;28;20086;-73
2023/11/18 02:53:54;;;;;;;16.20;7.40;;;;;;;;;;5006599;28;20036;-74
2023/11/18 02:56:20;;;;;;;17.15;7.43;;;;;;;;;;5005061;28;20033;-73
2023/11/18 02:58:46;;;;;;;14.55;6.10;;;;;;;;;;5003675;28;20124;-76
2023/11/18 03:01:11;;;;;;;12.98;5.75;;;;;;;;;;5004951;28;20129;-74
2023/11/18 03:03:36;;;;;;;19.55;9.15;;;;;;;;;;5003526;28;20089;-73
2023/11/18 03:06:02;;;;;;;19.48;8.77;;;;;;;;;;4996351;28;20423;-74
2023/11/18 03:08:30;;;;;;;13.77;6.13;;;;;;;;;;5014614;28;20029;-73
2023/11/18 03:10:56;;;;;;;9.82;5.55;;;;;;;;;;5006874;28;20034;-73
2023/11/18 03:13:22;;;;;;;20.02;8.73;;;;;;;;;;5013654;28;20045;-75
2023/11/18 03:15:48;;;;;;;20.60;8.95;;;;;;;;;;5007977;28;20116;-73
2023/11/18 03:18:15;;;;;;;20.63;9.68;;;;;;;;;;5016150;28;20030;-74
2023/11/18 03:20:40;;;;;;;17.27;7.97;;;;;;;;;;5002420;28;20055;-74
2023/11/18 03:23:08;;;;;;;19.77;8.65;;;;;;;;;;5012883;28;20038;-75
2023/11/18 03:25:34;;;;;;;21.02;9.70;;;;;;;;;;5020438;28;20026;-74
2023/11/18 03:28:00;;;;;;;9.07;5.40;;;;;;;;;;5006909;28;20045;-74
2023/11/18 03:30:26;;;;;;;17.48;8.07;;;;;;;;;;5007407;28;20033;-75
2023/11/18 03:32:51;;;;;;;20.35;8.40;;;;;;;;;;5008740;28;20099;-76
2023/11/18 03:35:16;;;;;;;15.95;7.20;;;;;;;;;;5008004;28;20467;-77
2023/11/18 03:37:42;;;;;;;15.63;7.53;;;;;;;;;;5005208;28;20113;-75
2023/11/18 03:40:09;;;;;;;20.40;8.93;;;;;;;;;;5017351;28;20530;-74
2023/11/18 03:42:35;;;;;;;19.83;9.38;;;;;;;;;;5005887;28;20033;-73
2023/11/18 03:45:01;;;;;;;13.88;6.90;;;;;;;;;;5001345;28;20038;-74
2023/11/18 03:47:26;;;;;;;17.92;8.63;;;;;;;;;;4995970;28;20459;-75
2023/11/18 03:49:54;;;;;;;16.92;8.02;;;;;;;;;;4993119;28;20417;-76
2023/11/18 03:52:20;;;;;;;21.75;9.77;;;;;;;;;;5014030;28;20029;-75
2023/11/18 03:54:45;;;;;;;20.83;10.02;;;;;;;;;;5006305;28;20440;-74
2023/11/18 03:57:10;;;;;;;12.43;6.15;;;;;;;;;;5007162;28;20038;-74
2023/11/18 03:59:36;;;;;;;25.42;9.88;;;;;;;;;;5005858;28;20670;-74
2023/11/18 04:02:01;;;;;;;9.10;4.45;;;;;;;;;;5008977;28;20056;-76
2023/11/18 04:04:27;;;;;;;19.58;8.52;;;;;;;;;;5014245;28;20096;-76
2023/11/18 04:06:52;;;;;;;19.60;8.82;;;;;;;;;;4996678;28;20112;-75
2023/11/18 04:09:18;;;;;;;23.58;9.15;;;;;;;;;;5009107;28;20160;-75
2023/11/18 04:11:44;;;;;;;10.55;5.35;;;;;;;;;;5012067;28;20048;-73
2023/11/18 04:14:11;;;;;;;17.60;8.75;;;;;;;;;;5006143;28;20041;-73
2023/11/18 04:16:37;;;;;;;27.38;9.50;;;;;;;;;;4993248;28;20036;-74
2023/11/18 04:19:03;;;;;;;21.65;9.60;;;;;;;;;;5014435;28;20057;-74
2023/11/18 04:21:29;;;;;;;18.70;8.57;;;;;;;;;;5006383;28;20072;-72
2023/11/18 04:23:54;;;;;;;17.58;8.13;;;;;;;;;;5007713;28;20034;-73
2023/11/18 04:26:20;;;;;;;21.90;9.30;;;;;;;;;;5007191;28;20033;-73
2023/11/18 04:28:45;;;;;;;18.67;8.60;;;;;;;;;;5006389;28;20039;-76
2023/11/18 04:31:11;;;;;;;19.20;8.50;;;;;;;;;;5006299;28;20042;-73
2023/11/18 04:33:36;;;;;;;15.57;7.95;;;;;;;;;;5005127;28;20045;-73
2023/11/18 04:36:02;;;;;;;16.45;6.90;;;;;;;;;;5004276;28;20030;-74
2023/11/18 04:38:28;;;;;;;12.85;5.65;;;;;;;;;;5011079;28;20124;-76
2023/11/18 04:40:54;;;;;;;8.60;3.80;;;;;;;;;;5004911;28;20634;-72
2023/11/18 04:43:20;;;;;;;20.30;7.85;;;;;;;;;;5003403;28;20535;-72
2023/11/18 04:45:46;;;;;;;14.55;7.47;;;;;;;;;;5009914;28;20051;-76
2023/11/18 04:48:14;;;;;;;7.53;4.15;;;;;;;;;;5008696;28;20163;-73
2023/11/18 04:50:41;;;;;;;19.05;6.88;;;;;;;;;;5012789;28;20099;-74
2023/11/18 04:53:10;;;;;;;15.27;7.72;;;;;;;;;;5004197;28;20046;-76
2023/11/18 04:55:37;;;;;;;11.75;4.95;;;;;;;;;;4993661;28;20038;-74
2023/11/18 04:58:02;;;;;;;11.43;6.10;;;;;;;;;;4993926;28;20124;-73
2023/11/18 05:00:28;;;;;;;12.45;4.97;;;;;;;;;;5004724;28;20133;-73
2023/11/18 05:02:54;;;;;;;19.20;8.05;;;;;;;;;;5005301;28;20910;-72
2023/11/18 05:05:22;;;;;;;23.40;9.88;;;;;;;;;;5006601;28;20074;-73
2023/11/18 05:07:47;;;;;;;21.73;8.95;;;;;;;;;;5010882;28;20068;-73
2023/11/18 05:10:12;;;;;;;24.45;9.95;;;;;;;;;;5010242;28;20037;-74
2023/11/18 05:12:39;;;;;;;24.23;10.38;;;;;;;;;;4993521;28;20062;-72
2023/11/18 05:15:07;;;;;;;20.77;8.02;;;;;;;;;;5011000;28;20199;-72
2023/11/18 05:17:35;;;;;;;25.05;9.77;;;;;;;;;;5009729;28;20411;-73
2023/11/18 05:20:04;;;;;;;21.83;9.65;;;;;;;;;;5011149;28;20033;-73
2023/11/18 05:22:30;;;;;;;20.83;8.75;;;;;;;;;;5009893;28;20041;-76
2023/11/18 05:24:57;;;;;;;20.00;8.65;;;;;;;;;;5006647;28;20416;-74
2023/11/18 05:27:22;;;;;;;19.55;8.07;;;;;;;;;;5010480;28;20029;-76
2023/11/18 05:29:53;;;;;;;20.67;8.05;;;;;;;;;;5006160;28;20064;-73
2023/11/18 05:32:25;;;;;;;18.95;8.68;;;;;;;;;;4998051;28;20046;-74
2023/11/18 05:34:53;;;;;;;15.25;6.65;;;;;;;;;;4997184;28;20038;-75
2023/11/18 05:37:19;;;;;;;21.50;8.80;;;;;;;;;;4995741;28;20042;-74
2023/11/18 05:39:45;;;;;;;18.73;9.02;;;;;;;;;;5003281;28;20037;-73
2023/11/18 05:42:11;;;;;;;19.30;7.90;;;;;;;;;;5005865;28;20038;-73
2023/11/18 05:44:39;;;;;;;12.32;5.40;;;;;;;;;;5004919;28;20095;-73
2023/11/18 05:47:08;;;;;;;18.50;8.63;;;;;;;;;;4997210;28;20120;-73
2023/11/18 05:49:34;;;;;;;18.00;7.05;;;;;;;;;;5008777;28;20038;-73
2023/11/18 05:51:59;;;;;;;18.20;8.07;;;;;;;;;;4992549;28;20559;-73
2023/11/18 05:54:25;;;;;;;15.00;6.50;;;;;;;;;;5006248;28;20034;-76
2023/11/18 05:56:51;;;;;;;15.02;6.85;;;;;;;;;;5007443;28;20295;-77
2023/11/18 05:59:16;;;;;;;16.17;6.70;;;;;;;;;;5005299;28;20099;-74
2023/11/18 06:01:42;;;;;;;14.93;6.68;;;;;;;;;;5002615;28;20034;-73
2023/11/18 06:04:10;;;;;;;15.25;6.47;;;;;;;;;;5012402;28;20495;-73
2023/11/18 06:06:37;;;;;;;21.08;6.60;;;;;;;;;;4994177;28;20101;-74
2023/11/18 06:09:08;;;;;;;15.25;7.18;;;;;;;;;;4989993;28;20062;-74
2023/11/18 06:11:34;;;;;;;15.18;7.20;;;;;;;;;;5003927;28;20030;-73
2023/11/18 06:14:01;;;;;;;16.75;6.82;;;;;;;;;;5009587;28;20029;-75
2023/11/18 06:16:26;;;;;;;14.88;7.15;;;;;;;;;;5011090;28;20045;-75
2023/11/18 06:18:54;;;;;;;14.45;6.70;;;;;;;;;;4998598;28;20041;-73
2023/11/18 06:21:24;;;;;;;12.05;6.35;;;;;;;;;;5013161;28;20420;-74
2023/11/18 06:23:50;;;;;;;14.68;6.75;;;;;;;;;;5010548;28;20026;-73
2023/11/18 06:26:17;;;;;;;11.70;5.85;;;;;;;;;;5011067;28;20417;-75
2023/11/18 06:28:48;;;;;;;17.38;6.68;;;;;;;;;;5015059;28;20072;-73
2023/11/18 06:31:14;;;;;;;;;;;;;;;;;;5001183;28;20404;-74
2023/11/18 06:33:42;;;;;;;12.13;5.18;;;;;;;;;;5011458;28;19962;-72
2023/11/18 06:36:13;;;;;;;15.93;7.32;;;;;;;;;;5010081;28;20528;-74
2023/11/18 06:38:43;;;;;;;20.75;8.93;;;;;;;;;;5010993;28;20042;-73
2023/11/18 06:41:11;;;;;;;25.38;8.85;;;;;;;;;;5009666;28;20088;-73
2023/11/18 06:43:59;;;;;;;17.10;8.85;;;;;;;;;;5007529;28;20460;-74
2023/11/18 06:46:31;;;;;;;20.80;8.23;;;;;;;;;;4980528;28;20398;-73
2023/11/18 06:48:57;;;;;;;18.75;8.32;;;;;;;;;;5006621;28;20679;-73
2023/11/18 06:51:24;;;;;;;17.90;8.32;;;;;;;;;;5006182;28;20033;-74
2023/11/18 06:53:59;;;;;;;17.48;8.30;;;;;;;;;;5005970;28;20669;-76
2023/11/18 06:56:25;;;;;;;15.48;7.88;;;;;;;;;;5008743;28;20586;-74
2023/11/18 06:58:51;;;;;;;17.98;7.65;;;;;;;;;;4997660;28;21748;-73
2023/11/18 07:01:18;;;;;;;19.63;8.15;;;;;;;;;;4992182;28;20068;-74
2023/11/18 07:03:53;;;;;;;23.35;8.65;;;;;;;;;;5013404;28;20045;-75
2023/11/18 07:06:23;;;;;;;20.48;8.25;;;;;;;;;;5009915;28;20033;-76
2023/11/18 07:08:49;;;;;;;11.07;5.20;;;;;;;;;;5008234;28;20042;-73
2023/11/18 07:11:15;;;;;;;17.05;6.80;;;;;;;;;;5001054;28;20076;-74
2023/11/18 07:13:41;;;;;;;16.10;7.20;;;;;;;;;;5007551;28;20046;-73
2023/11/18 07:16:08;;;;;;;15.73;5.65;;;;;;;;;;5003661;28;20767;-74
2023/11/18 07:18:37;;;;;;;15.45;7.55;;;;;;;;;;5000441;28;20117;-75
2023/11/18 07:21:05;;;;;;;17.83;6.65;;;;;;;;;;5001136;28;20558;-74
2023/11/18 07:23:33;;;;;;;15.90;6.90;;;;;;;;;;4996942;28;20493;-76
2023/11/18 07:26:00;;;;;;;15.48;6.90;;;;;;;;;;5007498;28;20875;-76
2023/11/18 07:28:26;;;;;;;16.48;6.35;;;;;;;;;;5007945;28;20044;-74
2023/11/18 07:30:53;;;;;;;12.20;6.10;;;;;;;;;;5003576;28;20141;-76
2023/11/18 07:33:20;;;;;;;14.48;6.80;;;;;;;;;;4991169;28;20029;-75
2023/11/18 07:35:46;;;;;;;12.18;4.28;;;;;;;;;;5006811;28;20034;-77
2023/11/18 07:38:12;;;;;;;16.48;6.13;;;;;;;;;;4996399;28;20060;-75
2023/11/18 07:40:42;;;;;;;15.73;6.72;;;;;;;;;;5004608;28;20129;-76
2023/11/18 07:43:08;;;;;;;24.38;9.43;;;;;;;;;;4994258;28;20121;-74
2023/11/18 07:45:39;;;;;;;16.98;7.47;;;;;;;;;;4986358;28;21026;-75
2023/11/18 07:48:11;;;;;;;16.98;8.00;;;;;;;;;;5006212;28;20124;-74
2023/11/18 07:50:40;;;;;;;22.63;9.50;;;;;;;;;;4977659;28;20404;-75
2023/11/18 07:53:06;;;;;;;19.23;8.77;;;;;;;;;;5009789;28;20040;-74
2023/11/18 07:55:34;;;;;;;22.17;9.82;;;;;;;;;;5013451;28;20088;-77
2023/11/18 07:58:01;;;;;;;24.25;9.75;;;;;;;;;;5011214;28;20071;-75
2023/11/18 08:00:30;;;;;;;16.92;7.43;;;;;;;;;;5009085;28;20061;-72
2023/11/18 08:03:00;;;;;;;19.10;7.70;;;;;;;;;;4985144;28;20046;-74
2023/11/18 08:05:26;;;;;;;22.45;8.65;;;;;;;;;;5015401;28;20293;-76
2023/11/18 08:07:53;;;;;;;20.05;9.05;;;;;;;;;;5007645;28;20467;-74
2023/11/18 08:10:19;;;;;;;15.55;7.65;;;;;;;;;;5010299;28;20059;-74
2023/11/18 08:12:46;;;;;;;15.68;6.18;;;;;;;;;;5006373;28;20071;-74
2023/11/18 08:15:11;;;;;;;18.67;8.23;;;;;;;;;;5003915;28;20065;-74
2023/11/18 08:17:37;;;;;;;16.98;7.60;;;;;;;;;;4994383;28;20096;-75
2023/11/18 08:20:13;;;;;;;17.50;7.20;;;;;;;;;;5008487;28;20075;-73
2023/11/18 08:22:41;;;;;;;13.70;7.13;;;;;;;;;;5013012;28;20041;-74
2023/11/18 08:25:08;;;;;;;14.75;6.88;;;;;;;;;;5012473;28;20514;-73
2023/11/18 08:27:37;;;;;;;14.20;7.05;;;;;;;;;;5010820;28;20547;-74
2023/11/18 08:30:10;;;;;;;12.30;6.78;;;;;;;;;;5005636;28;20063;-74
2023/11/18 08:32:37;;;;;;;11.23;6.55;;;;;;;;;;5016521;28;20099;-77
2023/11/18 08:35:06;;;;;;;13.55;6.50;;;;;;;;;;5009894;28;20037;-74
2023/11/18 08:37:32;;;;;;;14.98;7.18;;;;;;;;;;5012725;28;20463;-75
2023/11/18 08:39:57;;;;;;;15.02;7.13;;;;;;;;;;5007536;28;20037;-74
2023/11/18 08:42:24;;;;;;;13.23;6.45;;;;;;;;;;4992407;28;20045;-74
2023/11/18 08:44:49;;;;;;;11.95;6.15;;;;;;;;;;5013197;28;20048;-74
2023/11/18 08:47:15;;;;;;;12.23;5.75;;;;;;;;;;5001362;28;20037;-78
2023/11/18 08:49:43;;;;;;;9.98;4.90;;;;;;;;;;5005856;28;20055;-78
2023/11/18 08:52:12;;;;;;;11.48;5.10;;;;;;;;;;5004106;28;20044;-74
2023/11/18 08:54:42;;;;;;;8.40;4.75;;;;;;;;;;5006825;28;20047;-74
2023/11/18 08:57:19;;;;;;;9.35;5.32;;;;;;;;;;4999541;28;20064;-75
2023/11/18 08:59:45;;;;;;;8.80;4.40;;;;;;;;;;5007454;28;20033;-75
2023/11/18 09:02:14;;;;;;;13.88;5.32;;;;;;;;;;5007418;28;20121;-76
2023/11/18 09:04:42;;;;;;;10.02;5.15;;;;;;;;;;5003043;28;20041;-76
2023/11/18 09:07:09;;;;;;;10.98;5.32;;;;;;;;;;5017084;28;20513;-77
2023/11/18 09:09:35;;;;;;;6.47;3.70;;;;;;;;;;4989490;28;20069;-76
2023/11/18 09:12:02;;;;;;;7.28;3.80;;;;;;;;;;5005266;28;20527;-77
2023/11/18 09:14:28;;;;;;;6.50;3.83;;;;;;;;;;4989681;28;21053;-76
2023/11/18 09:16:58;;;;;;;6.95;4.07;;;;;;;;;;5014241;28;20042;-76
2023/11/18 09:19:24;;;;;;;7.18;3.72;;;;;;;;;;5004400;28;20038;-75
2023/11/18 09:21:51;;;;;;;9.70;4.53;;;;;;;;;;4994345;28;20064;-75
2023/11/18 09:24:19;;;;;;;6.30;3.60;;;;;;;;;;5003733;28;20046;-76
2023/11/18 09:26:49;;;;;;;6.55;3.50;;;;;;;;;;5012860;28;20034;-76
2023/11/18 09:29:18;;;;;;;6.63;3.75;;;;;;;;;;5008462;28;20038;-77
2023/11/18 09:31:52;;;;;;;7.78;3.78;;;;;;;;;;5001146;28;20116;-77
2023/11/18 09:34:26;;;;;;;6.68;3.50;;;;;;;;;;4996773;28;20051;-76
2023/11/18 09:36:52;;;;;;;6.85;3.50;;;;;;;;;;5011799;28;20095;-76
2023/11/18 09:39:28;;;;;;;4.18;2.45;;;;;;;;;;5013301;28;20145;-75
2023/11/18 09:41:57;;;;;;;5.82;4.07;;;;;;;;;;5006619;28;20538;-76
2023/11/18 09:44:26;;;;;;;10.18;4.82;;;;;;;;;;5005815;28;20056;-76
2023/11/18 09:47:04;;;;;;;4.22;2.33;;;;;;;;;;4993612;28;20037;-75
2023/11/18 09:49:38;;;;;;;3.95;2.35;;;;;;;;;;5009962;28;20033;-77
2023/11/18 09:52:05;;;;;;;4.25;2.60;;;;;;;;;;5004746;28;20030;-76
2023/11/18 09:54:41;;;;;;;4.68;2.45;;;;;;;;;;5006111;28;20180;-76
2023/11/18 09:57:16;;;;;;;5.63;2.88;;;;;;;;;;5002987;28;20037;-75
2023/11/18 10:00:19;;;;;;;4.88;2.88;;;;;;;;;;4999600;28;20034;-75
2023/11/18 10:02:50;;;;;;;4.57;2.70;;;;;;;;;;4999282;28;20050;-76
2023/11/18 10:05:19;;;;;;;5.63;2.67;;;;;;;;;;5012756;28;20396;-74
2023/11/18 10:07:47;;;;;;;5.10;2.65;;;;;;;;;;4997384;28;20542;-76
2023/11/18 10:10:15;;;;;;;4.55;2.50;;;;;;;;;;5006728;28;20468;-75
2023/11/18 10:12:45;;;;;;;3.80;2.55;;;;;;;;;;5000438;28;20030;-76
2023/11/18 10:15:14;;;;;;;4.00;2.10;;;;;;;;;;5002817;28;20536;-76
2023/11/18 10:17:59;;;;;;;5.28;2.60;;;;;;;;;;5009627;28;20403;-76
2023/11/18 10:20:46;;;;;;;4.85;3.10;;;;;;;;;;4983946;28;20114;-75
2023/11/18 10:23:19;;;;;;;3.58;2.30;;;;;;;;;;5010995;28;20852;-74
2023/11/18 10:25:52;;;;;;;4.85;2.17;;;;;;;;;;4994507;28;20049;-77
2023/11/18 10:28:28;;;;;;;2.53;1.17;;;;;;;;;;4997357;28;20084;-75
2023/11/18 10:30:57;;;;;;;4.35;2.70;;;;;;;;;;5002113;28;20054;-76
2023/11/18 10:33:30;;;;;;;6.38;2.55;;;;;;;;;;4992048;28;20108;-76
2023/11/18 10:35:56;;;;;;;4.55;2.95;;;;;;;;;;5006698;28;20106;-74
2023/11/18 10:38:25;;;;;;;5.20;3.10;;;;;;;;;;4997849;28;20103;-75
2023/11/18 10:40:55;;;;;;;3.45;2.45;;;;;;;;;;4982242;28;20038;-73
2023/11/18 10:43:28;;;;;;;5.35;2.58;;;;;;;;;;4987299;28;20053;-74
2023/11/18 10:46:13;;;;;;;6.90;2.88;;;;;;;;;;5013235;28;20029;-72
2023/11/18 10:48:43;;;;;;;6.75;3.63;;;;;;;;;;5004355;28;20048;-75
2023/11/18 10:51:11;;;;;;;6.25;3.80;;;;;;;;;;5008503;28;20079;-75
2023/11/18 10:53:37;;;;;;;5.88;3.78;;;;;;;;;;4999070;28;20399;-75
2023/11/18 10:56:05;;;;;;;6.85;3.83;;;;;;;;;;5014813;28;20037;-76
2023/11/18 10:58:40;;;;;;;6.35;3.33;;;;;;;;;;5012089;28;20096;-72
2023/11/18 11:01:11;;;;;;;6.97;4.40;;;;;;;;;;4992380;28;20124;-74
2023/11/18 11:03:53;;;;;;;7.47;4.90;;;;;;;;;;5008489;28;20163;-74
2023/11/18 11:06:23;;;;;;;9.25;4.70;;;;;;;;;;5003913;28;20276;-75
2023/11/18 11:08:49;;;;;;;4.50;2.75;;;;;;;;;;5011517;28;20088;-74
2023/11/18 11:11:21;;;;;;;3.40;2.58;;;;;;;;;;4994295;28;20056;-76
2023/11/18 11:13:55;;;;;;;8.20;4.13;;;;;;;;;;5005336;28;20033;-75
2023/11/18 11:16:26;;;;;;;6.00;3.50;;;;;;;;;;5014179;28;20026;-74
2023/11/18 11:18:59;;;;;;;11.23;5.18;;;;;;;;;;4986267;28;20042;-74
2023/11/18 11:21:28;;;;;;;7.18;4.10;;;;;;;;;;5012906;28;20415;-74
2023/11/18 11:24:00;;;;;;;3.50;1.67;;;;;;;;;;5012849;28;20037;-74
2023/11/18 11:26:39;;;;;;;7.53;4.80;;;;;;;;;;5009529;28;20026;-76
2023/11/18 11:29:34;;;;;;;7.97;4.43;;;;;;;;;;5008113;28;20033;-72
2023/11/18 11:32:18;;;;;;;7.82;4.88;;;;;;;;;;5020375;28;20091;-74
2023/11/18 11:34:57;;;;;;;6.78;4.22;;;;;;;;;;5018223;28;20110;-75
2023/11/18 11:37:26;;;;;;;7.32;4.70;;;;;;;;;;5011231;28;20038;-75
2023/11/18 11:39:53;;;;;;;10.55;5.57;;;;;;;;;;5003788;28;20065;-75
2023/11/18 11:42:22;;;;;;;6.53;3.85;;;;;;;;;;5019800;28;20060;-73
2023/11/18 11:44:49;;;;;;;6.57;4.05;;;;;;;;;;5014037;28;20053;-74
2023/11/18 11:47:15;;;;;;;11.23;4.93;;;;;;;;;;5021458;28;20105;-74
2023/11/18 11:50:13;;;;;;;8.00;4.50;;;;;;;;;;4996875;28;20084;-75
2023/11/18 11:52:48;;;;;;;6.35;3.05;;;;;;;;;;5000914;28;20072;-74
2023/11/18 11:55:29;;;;;;;6.55;3.97;;;;;;;;;;5013908;28;20048;-76
2023/11/18 11:57:58;;;;;;;6.63;4.18;;;;;;;;;;5011672;28;20048;-73
2023/11/18 12:00:25;;;;;;;5.47;2.85;;;;;;;;;;5015377;28;20030;-73
2023/11/18 12:02:56;;;;;;;4.40;3.22;;;;;;;;;;4990401;28;20029;-75
2023/11/18 12:05:27;;;;;;;4.53;3.63;;;;;;;;;;5013482;28;20678;-74
2023/11/18 12:07:56;;;;;;;3.05;2.00;;;;;;;;;;5019160;28;20492;-76
2023/11/18 12:10:26;;;;;;;6.00;3.92;;;;;;;;;;5012834;28;20544;-75
2023/11/18 12:13:07;;;;;;;6.05;3.95;;;;;;;;;;5019229;28;20861;-75
2023/11/18 12:16:05;;;;;;;5.72;3.30;;;;;;;;;;4989824;28;20043;-76
2023/11/18 12:18:36;;;;;;;7.15;4.38;;;;;;;;;;5013274;28;20029;-73
2023/11/18 12:21:03;;;;;;;6.45;3.78;;;;;;;;;;5004665;28;20044;-73
2023/11/18 12:23:30;;;;;;;5.65;3.97;;;;;;;;;;5004031;28;20046;-74
2023/11/18 12:25:57;;;;;;;8.07;3.97;;;;;;;;;;4985464;28;20043;-75
2023/11/18 12:28:27;;;;;;;4.75;2.88;;;;;;;;;;5013895;28;20116;-74
2023/11/18 12:30:57;;;;;;;4.93;3.70;;;;;;;;;;5001558;28;20041;-74
2023/11/18 12:33:28;;;;;;;6.38;3.70;;;;;;;;;;5006016;28;20033;-76
2023/11/18 12:36:13;;;;;;;5.75;2.88;;;;;;;;;;5005593;28;20046;-75
2023/11/18 12:39:02;;;;;;;5.40;3.63;;;;;;;;;;4995387;28;20478;-74
2023/11/18 12:41:42;;;;;;;3.33;2.20;;;;;;;;;;4991626;28;20034;-75
2023/11/18 12:44:26;;;;;;;3.97;3.17;;;;;;;;;;4995881;28;20126;-74
2023/11/18 12:46:54;;;;;;;6.13;4.30;;;;;;;;;;4999582;28;20101;-74
2023/11/18 12:49:24;;;;;;;5.57;3.33;;;;;;;;;;5006367;28;20053;-74
2023/11/18 12:51:54;;;;;;;5.35;3.30;;;;;;;;;;4990499;28;20520;-74
2023/11/18 12:54:21;;;;;;;4.03;2.47;;;;;;;;;;4998947;28;20037;-75
2023/11/18 12:56:49;;;;;;;5.07;2.92;;;;;;;;;;5004842;28;20038;-74
2023/11/18 12:59:17;;;;;;;8.95;5.40;;;;;;;;;;4993845;28;20747;-73
2023/11/18 13:01:51;;;;;;;5.07;3.28;;;;;;;;;;4995943;28;20576;-74
2023/11/18 13:04:17;;;;;;;4.03;2.05;;;;;;;;;;5009396;28;20034;-74
2023/11/18 13:06:43;;;;;;;6.82;4.05;;;;;;;;;;5011203;28;20037;-74
2023/11/18 13:09:10;;;;;;;4.18;2.90;;;;;;;;;;5001963;28;20041;-75
2023/11/18 13:11:38;;;;;;;4.75;3.20;;;;;;;;;;5012205;28;20049;-74
2023/11/18 13:14:03;;;;;;;5.50;3.15;;;;;;;;;;4999927;28;20033;-73
2023/11/18 13:16:29;;;;;;;5.78;3.13;;;;;;;;;;5012330;28;20060;-75
2023/11/18 13:18:56;;;;;;;6.22;3.13;;;;;;;;;;5018475;28;20411;-73
2023/11/18 13:21:23;;;;;;;5.45;3.78;;;;;;;;;;5002414;28;20128;-78
2023/11/18 13:23:52;;;;;;;8.45;3.58;;;;;;;;;;5016210;28;20029;-75
2023/11/18 13:26:19;;;;;;;8.63;3.17;;;;;;;;;;5016873;28;20038;-76
2023/11/18 13:28:46;;;;;;;7.00;4.07;;;;;;;;;;4989976;28;20041;-78
2023/11/18 13:31:16;;;;;;;7.13;3.33;;;;;;;;;;5009811;28;20038;-77
2023/11/18 13:33:42;;;;;;;10.23;4.25;;;;;;;;;;4996416;28;20180;-77
2023/11/18 13:36:12;;;;;;;4.70;2.63;;;;;;;;;;5011915;28;20053;-76
2023/11/18 13:38:38;;;;;;;6.15;3.80;;;;;;;;;;5000457;28;20076;-76
2023/11/18 13:41:03;;;;;;;6.50;3.63;;;;;;;;;;5004840;28;20065;-75
2023/11/18 13:43:45;;;;;;;3.85;2.83;;;;;;;;;;5015308;28;20103;-76
2023/11/18 13:46:14;;;;;;;5.80;3.85;;;;;;;;;;5002102;28;20108;-76
2023/11/18 13:48:40;;;;;;;6.28;3.25;;;;;;;;;;5004428;28;20590;-73
2023/11/18 13:51:15;;;;;;;7.28;4.00;;;;;;;;;;4994899;28;20069;-75
2023/11/18 13:53:43;;;;;;;7.65;4.32;;;;;;;;;;4979316;28;20050;-77
2023/11/18 13:56:12;;;;;;;8.20;4.80;;;;;;;;;;5017623;28;20034;-77
2023/11/18 13:58:41;;;;;;;9.85;3.55;;;;;;;;;;5014124;28;20045;-75
2023/11/18 14:01:07;;;;;;;8.07;4.00;;;;;;;;;;5003372;28;20041;-76
2023/11/18 14:03:34;;;;;;;9.60;4.40;;;;;;;;;;5010246;28;20045;-75
2023/11/18 14:06:02;;;;;;;10.27;5.15;;;;;;;;;;4995598;28;20141;-77
2023/11/18 14:08:29;;;;;;;9.45;4.40;;;;;;;;;;5005257;28;20124;-76
2023/11/18 14:10:55;;;;;;;5.15;2.92;;;;;;;;;;5001611;28;20040;-76
2023/11/18 14:13:21;;;;;;;5.57;3.78;;;;;;;;;;5011136;28;20037;-76
2023/11/18 14:15:48;;;;;;;5.57;3.42;;;;;;;;;;5002518;28;20037;-77
2023/11/18 14:18:13;;;;;;;7.32;4.32;;;;;;;;;;4997374;28;20101;-76
2023/11/18 14:20:39;;;;;;;3.97;2.60;;;;;;;;;;5008941;28;20057;-78
2023/11/18 14:23:04;;;;;;;6.47;4.05;;;;;;;;;;5016583;28;20036;-77
2023/11/18 14:25:33;;;;;;;6.85;4.40;;;;;;;;;;5010086;28;20451;-77
2023/11/18 14:27:59;;;;;;;8.90;4.70;;;;;;;;;;5003535;28;20065;-77
2023/11/18 14:30:25;;;;;;;8.38;4.13;;;;;;;;;;5011335;28;20045;-77
2023/11/18 14:32:54;;;;;;;6.38;4.13;;;;;;;;;;4989951;28;20042;-77
2023/11/18 14:35:20;;;;;;;6.57;3.65;;;;;;;;;;4962570;28;20046;-77
2023/11/18 14:37:46;;;;;;;7.60;4.38;;;;;;;;;;5006736;28;20037;-77
2023/11/18 14:40:15;;;;;;;5.60;3.88;;;;;;;;;;5000738;28;20034;-77
2023/11/18 14:42:51;;;;;;;6.30;4.20;;;;;;;;;;5005165;28;20084;-77
2023/11/18 14:45:16;;;;;;;7.55;4.55;;;;;;;;;;5005208;28;20045;-76